Amsterdam, NY (12010)

12:14 PM EDT on July 26, 2016 (GMT -0400)
East End @ Kirk Douglas House | | Change Station

Elev 276 ft 42.93 °N, 74.18 °W | Updated 2 seconds ago

Scattered Clouds
Scattered Clouds
79.8 °F
Feels Like 82 °F
N
6.0
Wind Variable Wind from NW
Gusts 8.0 mph

Today
High -- | Low -- °F
--% Chance of Precip.
Yesterday
High -- | Low -- °F
Precip. -- in
Pressure 29.91 in
Visibility 15.0 miles
Clouds Scattered Clouds 3300 ft
Scattered Clouds 5000 ft
Heat Index 82 °F
Dew Point 65 °F
Humidity 61%
Rainfall 0.00 in
Snow Depth Not available.
5:42 AM 8:23 PM
Waning Gibbous, 53% visible
METAR KSCH 261450Z 28013KT 15SM SCT033 SCT050 27/17 A2991
Pressure 29.91 in
Visibility 15.0 miles
Clouds Scattered Clouds 3300 ft
Scattered Clouds 5000 ft
Heat Index 82 °F
Dew Point 65 °F
Humidity 61%
Rainfall 0.00 in
Snow Depth Not available.
5:42 AM 8:23 PM
Waning Gibbous, 53% visible
METAR KSCH 261450Z 28013KT 15SM SCT033 SCT050 27/17 A2991

10-Day Weather Forecast

Almanac

Astronomy

Jul. 26, 2016 Rise Set
Actual Time
Civil Twilight
Nautical Twilight
Astronomical Twilight
Moon
Length of Visible Light
Length of Day
Tomorrow will be .
, % of the Moon is Illuminated

Today's Extremes

State Highs State Lows

Community

WunderPhotos

Upload Photos

1,927,625 photos uploaded!

WunderBlog® & News

Nearby

Air Quality

  Air Quality AQ Index Pollutant
Not available.

Snow Depth

Station Depth Elevation

Earthquake Activity

City Distance Mag. Time & Date
Minimum magnitude displayed is 2.5.

Coastal Water Temperatures

Place Temperature

Stations

Nearby Weather Stations

Station Location Temp. Windchill Dew Point Humidity Wind Precip. Elev Updated Type
                   

Watches & Warnings

There are currently no watches in effect.